createdAt,value
2022-08-26T00:01:00.137Z,3.00
2022-08-26T00:06:01.707Z,2.83
2022-08-26T00:11:04.289Z,2.92
2022-08-26T00:16:09.153Z,3.38
2022-08-26T00:21:13.505Z,3.15
2022-08-26T00:26:15.195Z,3.78
2022-08-26T00:31:16.990Z,2.97
2022-08-26T00:36:20.240Z,3.25
2022-08-26T00:41:22.161Z,3.08
2022-08-26T00:46:28.913Z,3.53
2022-08-26T00:51:31.434Z,3.38
2022-08-26T00:56:42.218Z,3.60
2022-08-26T01:01:44.366Z,3.30
2022-08-26T01:06:50.734Z,3.22
2022-08-26T01:11:55.740Z,3.70
2022-08-26T01:16:57.690Z,3.47
2022-08-26T01:22:05.548Z,3.85
2022-08-26T01:27:09.917Z,3.88
2022-08-26T01:32:15.970Z,3.80
2022-08-26T01:37:22.871Z,3.67
2022-08-26T01:42:27.460Z,3.90
2022-08-26T01:47:35.207Z,3.70
2022-08-26T01:52:41.332Z,3.90
2022-08-26T01:57:47.804Z,3.20
2022-08-26T02:03:11.860Z,3.67
2022-08-26T02:08:24.889Z,3.45
2022-08-26T02:13:30.245Z,3.13
2022-08-26T02:18:35.829Z,3.72
2022-08-26T02:23:43.228Z,3.50
2022-08-26T02:28:49.978Z,3.47
2022-08-26T02:33:51.746Z,3.28
2022-08-26T02:38:53.217Z,3.20
2022-08-26T02:43:57.202Z,3.50
2022-08-26T02:49:01.329Z,3.80
2022-08-26T02:54:02.987Z,4.10
2022-08-26T02:59:06.129Z,4.28
2022-08-26T03:04:10.910Z,3.50
2022-08-26T03:09:18.451Z,3.95
2022-08-26T03:14:21.197Z,3.70
2022-08-26T03:19:25.981Z,4.25
2022-08-26T03:24:27.796Z,3.53
2022-08-26T03:29:49.562Z,4.15
2022-08-26T03:34:53.006Z,3.83
2022-08-26T03:39:54.710Z,3.67
2022-08-26T03:44:57.702Z,3.22
2022-08-26T03:49:59.386Z,3.50
2022-08-26T03:55:01.331Z,3.38
2022-08-26T04:00:10.272Z,3.58
2022-08-26T04:05:17.605Z,3.53
2022-08-26T04:10:28.983Z,4.40
2022-08-26T04:15:31.026Z,4.43
2022-08-26T04:20:32.563Z,4.20
2022-08-26T04:25:34.759Z,4.32
2022-08-26T04:30:37.924Z,3.97
2022-08-26T04:35:40.142Z,3.92
2022-08-26T04:40:46.935Z,3.72
2022-08-26T04:45:50.384Z,3.97
2022-08-26T04:50:53.096Z,4.10
2022-08-26T04:55:55.238Z,3.92
2022-08-26T05:00:57.277Z,4.32
2022-08-26T05:06:00.638Z,4.20
2022-08-26T05:11:04.931Z,4.72
2022-08-26T05:16:11.655Z,4.63
2022-08-26T05:21:22.566Z,3.75
2022-08-26T05:26:28.369Z,4.05
2022-08-26T05:31:31.795Z,4.07
2022-08-26T05:36:35.566Z,4.85
2022-08-26T05:41:40.764Z,4.15
2022-08-26T05:46:44.776Z,4.40
2022-08-26T05:51:47.702Z,4.40
2022-08-26T05:56:52.337Z,4.55
2022-08-26T06:01:55.203Z,5.38
2022-08-26T06:06:57.236Z,5.07
2022-08-26T06:11:58.946Z,4.55
2022-08-26T06:17:00.847Z,4.55
2022-08-26T06:22:23.734Z,4.60
2022-08-26T06:27:27.309Z,4.75
2022-08-26T06:32:32.174Z,4.30
2022-08-26T06:37:33.726Z,4.30
2022-08-26T06:42:38.053Z,3.00
2022-08-26T06:47:44.445Z,3.28
2022-08-26T06:52:52.660Z,3.55
2022-08-26T06:57:57.007Z,4.78
2022-08-26T07:02:58.536Z,4.20
2022-08-26T07:08:00.408Z,4.45
2022-08-26T07:13:02.279Z,4.75
2022-08-26T07:18:07.255Z,4.10
2022-08-26T07:23:11.641Z,3.80
2022-08-26T07:28:13.794Z,3.40
2022-08-26T07:33:15.422Z,3.53
2022-08-26T07:38:17.017Z,3.30
2022-08-26T07:43:18.660Z,2.97
2022-08-26T07:48:23.312Z,3.63
2022-08-26T07:53:24.799Z,2.80
2022-08-26T07:58:26.481Z,3.22
2022-08-26T08:03:28.178Z,3.38
2022-08-26T08:08:32.898Z,3.42
2022-08-26T08:13:34.439Z,3.28
2022-08-26T08:18:36.018Z,3.40
2022-08-26T08:23:37.748Z,3.25
2022-08-26T08:28:39.868Z,3.17
2022-08-26T08:33:43.017Z,2.88
2022-08-26T08:38:45.125Z,3.35
2022-08-26T08:43:47.402Z,3.40
2022-08-26T08:48:58.642Z,3.25
2022-08-26T08:54:02.666Z,3.17
2022-08-26T08:59:24.591Z,3.05
2022-08-26T09:05:04.995Z,4.07
2022-08-26T09:10:15.452Z,3.20
2022-08-26T09:15:28.681Z,2.83
2022-08-26T09:20:53.217Z,3.20
2022-08-26T09:26:01.251Z,2.83
2022-08-26T09:31:13.675Z,3.53
2022-08-26T09:36:24.909Z,2.80
2022-08-26T09:41:35.451Z,3.67
2022-08-26T09:51:50.159Z,3.30
2022-08-26T09:56:52.458Z,3.47
2022-08-26T10:01:54.956Z,3.10
2022-08-26T10:07:06.412Z,3.60
2022-08-26T10:12:16.973Z,3.47
2022-08-26T10:17:34.130Z,3.08
2022-08-26T10:22:50.485Z,3.60
2022-08-26T10:28:18.087Z,3.20
2022-08-26T10:33:20.106Z,3.03
2022-08-26T10:38:31.983Z,3.00
2022-08-26T10:43:55.481Z,3.40
2022-08-26T10:49:10.511Z,3.30
2022-08-26T10:54:19.805Z,3.50
2022-08-26T10:59:37.822Z,3.35
2022-08-26T11:04:59.042Z,3.90
2022-08-26T11:10:10.339Z,3.33
2022-08-26T11:15:24.487Z,3.20
2022-08-26T11:20:47.321Z,4.20
2022-08-26T11:26:01.562Z,4.18
2022-08-26T11:31:08.714Z,3.58
2022-08-26T11:36:27.570Z,3.58
2022-08-26T11:41:31.359Z,3.70
2022-08-26T11:46:37.368Z,3.13
2022-08-26T11:51:40.848Z,2.90
2022-08-26T11:56:46.971Z,3.30
2022-08-26T12:01:51.811Z,3.10
2022-08-26T12:06:53.458Z,3.05
2022-08-26T12:12:16.449Z,2.95
2022-08-26T12:17:26.158Z,3.03
2022-08-26T12:22:40.613Z,3.53
2022-08-26T12:27:53.779Z,3.10
2022-08-26T12:33:22.161Z,3.20
2022-08-26T12:38:34.063Z,2.63
2022-08-26T12:43:44.503Z,2.70
2022-08-26T12:48:49.127Z,2.25
2022-08-26T12:53:51.175Z,3.00
2022-08-26T12:59:17.628Z,2.72
2022-08-26T13:04:40.819Z,2.60
2022-08-26T13:09:42.283Z,3.17
2022-08-26T13:14:44.632Z,2.75
2022-08-26T13:19:46.141Z,2.80
2022-08-26T13:24:48.057Z,3.75
2022-08-26T13:29:51.364Z,4.10
2022-08-26T13:34:55.014Z,3.85
2022-08-26T13:39:56.558Z,3.60
2022-08-26T13:44:59.018Z,3.97
2022-08-26T13:50:00.473Z,3.90
2022-08-26T13:55:02.111Z,3.70
2022-08-26T14:00:05.114Z,3.22
2022-08-26T14:05:07.373Z,3.75
2022-08-26T14:10:09.439Z,3.95
2022-08-26T14:15:11.835Z,3.85
2022-08-26T14:20:17.454Z,3.65
2022-08-26T14:25:19.899Z,3.83
2022-08-26T14:30:21.873Z,3.85
2022-08-26T14:35:27.676Z,3.45
2022-08-26T14:40:31.578Z,4.00
2022-08-26T14:50:43.375Z,3.83
2022-08-26T14:55:46.008Z,3.67
2022-08-26T15:00:47.921Z,4.50
2022-08-26T15:05:49.493Z,4.53
2022-08-26T15:10:51.618Z,4.10
2022-08-26T15:15:53.490Z,4.57
2022-08-26T15:20:55.743Z,5.18
2022-08-26T15:25:57.550Z,4.35
2022-08-26T15:31:00.802Z,4.18
2022-08-26T15:36:04.590Z,4.40
2022-08-26T15:41:08.676Z,4.10
2022-08-26T15:46:11.856Z,4.78
2022-08-26T15:51:26.247Z,6.53
2022-08-26T15:56:31.020Z,7.38
2022-08-26T16:01:32.767Z,6.65
2022-08-26T16:06:36.702Z,7.15
2022-08-26T16:11:38.485Z,7.20
2022-08-26T16:16:41.799Z,7.60
2022-08-26T16:21:43.317Z,7.18
2022-08-26T16:26:45.276Z,6.30
2022-08-26T16:31:47.655Z,5.90
2022-08-26T16:36:49.194Z,5.50
2022-08-26T16:41:50.668Z,5.25
2022-08-26T16:46:55.992Z,5.20
2022-08-26T16:52:00.280Z,4.32
2022-08-26T16:57:02.563Z,4.82
2022-08-26T17:02:05.073Z,4.18
2022-08-26T17:07:06.959Z,4.20
2022-08-26T17:12:08.984Z,4.50
2022-08-26T17:17:11.949Z,5.43
2022-08-26T17:22:13.480Z,5.63
2022-08-26T17:27:15.285Z,5.53
2022-08-26T17:32:16.738Z,5.47
2022-08-26T17:37:18.234Z,6.63
2022-08-26T17:42:19.869Z,7.75
2022-08-26T17:47:21.319Z,10.73
2022-08-26T17:52:23.109Z,16.42
2022-08-26T17:57:26.130Z,15.38
2022-08-26T18:07:33.509Z,9.93
2022-08-26T18:17:44.826Z,9.57
2022-08-26T18:22:47.793Z,6.80
2022-08-26T18:27:49.439Z,7.93
2022-08-26T18:32:52.084Z,7.47
2022-08-26T18:37:53.872Z,7.45
2022-08-26T18:42:55.342Z,7.78
2022-08-26T18:47:57.396Z,7.55
2022-08-26T18:52:58.821Z,9.55
2022-08-26T18:58:00.281Z,10.77
2022-08-26T19:03:01.829Z,9.65
2022-08-26T19:08:03.514Z,11.55
2022-08-26T19:13:09.632Z,12.63
2022-08-26T19:18:14.443Z,11.40
2022-08-26T19:23:30.997Z,11.23
2022-08-26T19:28:34.245Z,11.27
2022-08-26T19:33:37.992Z,12.95
2022-08-26T19:38:39.485Z,11.82
2022-08-26T19:43:41.613Z,12.02
2022-08-26T19:48:44.409Z,13.75
2022-08-26T19:53:47.946Z,12.35
2022-08-26T19:58:50.643Z,12.65
2022-08-26T20:03:52.459Z,12.00
2022-08-26T20:08:54.097Z,11.35
2022-08-26T20:13:59.043Z,10.93
2022-08-26T20:19:18.813Z,11.75
2022-08-26T20:24:21.090Z,11.80
2022-08-26T20:29:22.623Z,12.43
2022-08-26T20:34:24.636Z,13.88
2022-08-26T20:39:29.509Z,13.63
2022-08-26T20:44:30.939Z,13.50
2022-08-26T20:49:32.437Z,14.95
2022-08-26T20:54:36.390Z,14.68
2022-08-26T20:59:37.847Z,13.50
2022-08-26T21:04:40.424Z,14.40
2022-08-26T21:09:42.013Z,14.00
2022-08-26T21:14:47.725Z,17.65
2022-08-26T21:19:51.217Z,17.90
2022-08-26T21:24:52.672Z,18.73
2022-08-26T21:29:55.635Z,16.33
2022-08-26T21:34:59.169Z,17.73
2022-08-26T21:40:05.228Z,17.77
2022-08-26T21:45:07.419Z,22.05
2022-08-26T21:50:09.229Z,20.60
2022-08-26T21:55:11.769Z,19.38
2022-08-26T22:00:15.744Z,19.60
2022-08-26T22:05:17.253Z,16.55
2022-08-26T22:10:18.862Z,16.38
2022-08-26T22:15:23.178Z,18.98
2022-08-26T22:20:24.703Z,17.45
2022-08-26T22:25:26.827Z,16.42
2022-08-26T22:30:28.469Z,16.92
2022-08-26T22:35:30.979Z,15.93
2022-08-26T22:40:33.831Z,15.48
2022-08-26T22:45:44.148Z,16.67
2022-08-26T22:50:47.443Z,16.92
2022-08-26T22:55:49.470Z,16.38
2022-08-26T23:00:50.969Z,16.80
2022-08-26T23:05:56.056Z,17.33
2022-08-26T23:10:57.508Z,19.02
2022-08-26T23:16:03.932Z,16.00
2022-08-26T23:21:06.198Z,15.20
2022-08-26T23:26:08.294Z,13.27
2022-08-26T23:31:09.755Z,17.00
2022-08-26T23:36:14.619Z,17.73
2022-08-26T23:41:22.327Z,15.40
2022-08-26T23:46:23.817Z,16.40
2022-08-26T23:51:44.271Z,15.00
2022-08-26T23:56:47.557Z,19.00
